Kuujjuaq, Canada
Current Conditions -  °F | °C
As of 5:00 AM on Thursday 23 Oct 2014 (Local Time) from CYVP Reporting Station
Broken Clouds Broken Clouds  
Wind Chill: 32°   Ceiling: 7000
Heat Index: 39°   Visibility: 15mi
Dew Point: 28°   Wind: 13mph
Humidity: 65%   Direction: 220°SW
Pressure: 29.98"   Gusts: NA
Location:  58.22°N, 68.37°W
Report Text: CYVP 230900Z 22011KT 15SM SCT045 BKN070 BKN130 04/M02 A2998 RMK SC3AC3AC1 SLP153
Loading
Personal Weather Stations






























Interactive Weather Map
Tropical Storm Tracking
New forecast layout! Learn more

10-Day Weather Forecast

Advertisements
Track Severe Weather on mobile